Itaju do Colonia, Brazil
Current Conditions -  °F | °C
As of 4:00 PM on Thursday 27 Nov 2014 (Local Time) from SBIL Reporting Station
Scattered Clouds Scattered Clouds  
Wind Chill: 82°   Ceiling: Unl
Heat Index: 88°   Visibility: 6mi
Dew Point: 73°   Wind: 15mph
Humidity: 74%   Direction: 60°ENE
Pressure: 29.88"   Gusts: NA
Location:  15.14°S, 39.72°W
Report Text: SBIL 271900Z 06013KT 9999 SCT025 28/23 Q1012
Loading
Personal Weather Stations






























Interactive Weather Map New forecast layout! Learn more

10-Day Weather Forecast

Advertisements
Track Severe Weather on mobile